.
WxDataArchive / Data Records for 2008-04-13
2008-04-12 April 2008 2008-04-14

Data Records for Sunday, 13 April 2008

Time	Temp	Chill	HIndex	Humid	Dewpt	 Wind 	HiWind	WindDir	Rain 	Barom 
-----	----	-----	------	-----	-----	------	------	-------	-----	----- 
00:00	36.5	36.5	36.5	90	33.9	1	4	270	0.00	29.741 
00:05	36.2	36.2	36.2	90	33.6	2	4	270	0.00	29.744 
00:10	36.2	36.2	36.2	90	33.6	2	3	270	0.00	29.744 
00:15	36.0	36.0	36.0	91	33.6	1	3	248	0.00	29.744 
00:20	36.0	36.0	36.0	91	33.6	1	3	248	0.00	29.744 
00:25	36.0	36.0	36.0	91	33.6	0	2	248	0.00	29.745 
00:30	35.9	35.9	35.9	91	33.5	1	2	248	0.00	29.745 
00:35	35.9	35.9	35.9	91	33.5	1	3	248	0.00	29.745 
00:40	35.9	35.9	35.9	91	33.5	1	3	248	0.00	29.746 
00:45	35.9	35.9	35.9	91	33.5	1	3	248	0.00	29.746 
00:50	35.9	35.9	35.9	92	33.8	0	2	248	0.00	29.746 
00:55	35.9	35.9	35.9	92	33.8	0	2	248	0.00	29.746 
01:00	35.9	35.9	35.9	92	33.8	0	3	248	0.00	29.746 
01:05	35.9	35.9	35.9	92	33.8	1	3	248	0.00	29.745 
01:10	35.9	35.9	35.9	92	33.8	1	2	248	0.00	29.744 
01:15	35.9	35.9	35.9	92	33.8	1	3	248	0.00	29.742 
01:20	35.9	35.9	35.9	92	33.8	1	2	270	0.00	29.743 
01:25	35.9	35.9	35.9	92	33.8	1	4	270	0.00	29.742 
01:30	35.9	35.9	35.9	92	33.8	1	3	225	0.00	29.742 
01:35	35.9	35.9	35.9	92	33.8	1	3	270	0.00	29.742 
01:40	35.9	35.9	35.9	92	33.8	0	1	248	0.00	29.741 
01:45	35.9	35.9	35.9	92	33.8	0	2	248	0.00	29.741 
01:50	36.0	36.0	36.0	92	33.9	0	1	248	0.00	29.741 
01:55	36.0	36.0	36.0	92	33.9	1	4	248	0.00	29.740 
02:00	35.9	35.9	35.9	92	33.8	1	3	270	0.01	29.740 
02:05	35.9	35.9	35.9	92	33.8	0	4	248	0.00	29.740 
02:10	36.0	36.0	36.0	93	34.2	0	2	248	0.00	29.740 
02:15	36.0	36.0	36.0	93	34.2	0	3	248	0.00	29.740 
02:20	35.9	35.9	35.9	93	34.1	1	3	248	0.00	29.740 
02:25	35.9	35.9	35.9	93	34.1	0	2	248	0.00	29.740 
02:30	36.0	36.0	36.0	93	34.2	0	1	248	0.00	29.738 
02:35	36.0	36.0	36.0	93	34.2	1	2	248	0.00	29.737 
02:40	36.0	36.0	36.0	93	34.2	0	2	248	0.00	29.736 
02:45	36.0	36.0	36.0	93	34.2	0	2	248	0.00	29.736 
02:50	36.0	36.0	36.0	93	34.2	1	3	248	0.00	29.736 
02:55	36.2	36.2	36.2	93	34.4	0	1	315	0.00	29.736 
03:00	36.3	36.3	36.3	94	34.7	0	1	315	0.00	29.736 
03:05	36.3	36.3	36.3	94	34.7	0	1	315	0.00	29.736 
03:10	36.3	36.3	36.3	94	34.7	1	2	315	0.00	29.737 
03:15	36.3	36.3	36.3	94	34.7	1	4	270	0.00	29.739 
03:20	36.3	36.3	36.3	94	34.7	0	3	292	0.00	29.741 
03:25	36.2	36.2	36.2	93	34.4	0	2	292	0.00	29.742 
03:30	35.9	35.9	35.9	93	34.1	0	3	315	0.00	29.742 
03:35	35.8	35.8	35.8	93	34.0	1	3	292	0.00	29.743 
03:40	35.8	35.8	35.8	93	34.0	0	3	292	0.00	29.744 
03:45	35.8	35.8	35.8	93	34.0	1	4	292	0.00	29.745 
03:50	35.8	35.8	35.8	93	34.0	0	2	338	0.00	29.747 
03:55	35.8	35.8	35.8	93	34.0	0	1	338	0.00	29.747 
04:00	35.6	35.6	35.6	92	33.5	1	2	338	0.00	29.748 
04:05	35.5	35.5	35.5	92	33.4	0	2	338	0.00	29.751 
04:10	35.6	35.6	35.6	92	33.5	0	2	338	0.00	29.753 
04:15	35.5	35.5	35.5	92	33.4	1	4	338	0.00	29.754 
04:20	35.5	35.5	35.5	92	33.4	0	2	270	0.00	29.756 
04:25	35.3	35.3	35.3	92	33.2	0	3	315	0.00	29.757 
04:30	35.2	35.2	35.2	92	33.1	0	2	315	0.00	29.760 
04:35	35.2	35.2	35.2	92	33.1	0	3	315	0.00	29.760 
04:40	35.2	35.2	35.2	92	33.1	0	2	315	0.00	29.761 
04:45	35.0	35.0	35.0	92	32.9	0	3	315	0.00	29.761 
04:50	35.0	35.0	35.0	92	32.9	0	2	315	0.00	29.761 
04:55	34.9	34.9	34.9	92	32.8	0	5	292	0.01	29.762 
05:00	34.7	34.7	34.7	92	32.6	0	2	315	0.00	29.763 
05:05	34.7	34.7	34.7	92	32.6	0	2	292	0.00	29.765 
05:10	34.6	34.6	34.6	92	32.5	1	5	0	0.00	29.767 
05:15	34.6	34.6	34.6	92	32.5	0	2	22	0.00	29.771 
05:20	34.6	34.6	34.6	93	32.8	0	2	0	0.00	29.773 
05:25	34.6	34.6	34.6	93	32.8	0	2	0	0.00	29.775 
05:30	34.6	34.6	34.6	93	32.8	0	4	68	0.00	29.775 
05:35	34.6	34.6	34.6	93	32.8	0	4	68	0.00	29.776 
05:40	34.6	34.6	34.6	93	32.8	0	2	45	0.00	29.776 
05:45	34.6	34.6	34.6	93	32.8	0	2	22	0.00	29.779 
05:50	34.6	34.6	34.6	93	32.8	1	5	22	0.00	29.782 
05:55	34.6	34.6	34.6	93	32.8	0	2	315	0.00	29.786 
06:00	34.6	34.6	34.6	93	32.8	0	3	292	0.00	29.788 
06:05	34.6	34.6	34.6	93	32.8	0	2	338	0.00	29.790 
06:10	34.6	34.6	34.6	93	32.8	0	2	292	0.01	29.792 
06:15	34.7	34.7	34.7	93	32.9	0	3	292	0.00	29.793 
06:20	34.7	34.7	34.7	93	32.9	0	3	292	0.00	29.797 
06:25	34.7	34.7	34.7	93	32.9	0	2	292	0.00	29.800 
06:30	34.7	34.7	34.7	93	32.9	1	4	292	0.00	29.804 
06:35	34.7	34.7	34.7	93	32.9	1	2	338	0.00	29.806 
06:40	34.7	34.7	34.7	93	32.9	1	2	338	0.00	29.807 
06:45	34.7	34.7	34.7	93	32.9	0	3	315	0.00	29.809 
06:50	34.9	34.9	34.9	93	33.1	1	3	315	0.00	29.810 
06:55	34.9	34.9	34.9	93	33.1	1	4	22	0.00	29.812 
07:00	34.9	34.9	34.9	93	33.1	1	4	292	0.00	29.816 
07:05	34.9	34.9	34.9	93	33.1	1	4	22	0.00	29.820 
07:10	34.9	34.9	34.9	93	33.1	1	3	0	0.00	29.823 
07:15	34.9	34.9	34.9	93	33.1	0	2	22	0.01	29.825 
07:20	34.7	34.7	34.7	92	32.6	1	6	22	0.00	29.828 
07:25	34.7	34.7	34.7	92	32.6	1	5	22	0.00	29.832 
07:30	34.7	34.7	34.7	92	32.6	1	4	22	0.00	29.835 
07:35	34.6	34.6	34.6	92	32.5	1	3	22	0.00	29.836 
07:40	34.7	34.7	34.7	92	32.6	1	4	0	0.00	29.838 
07:45	34.7	34.7	34.7	92	32.6	1	2	45	0.00	29.838 
07:50	34.9	34.9	34.9	92	32.8	1	7	0	0.00	29.839 
07:55	35.0	35.0	35.0	92	32.9	1	4	22	0.00	29.840 
08:00	35.2	35.2	35.2	92	33.1	1	4	45	0.00	29.843 
08:05	35.5	35.5	35.5	92	33.4	1	3	315	0.00	29.848 
08:10	35.6	35.6	35.6	91	33.2	1	5	338	0.00	29.849 
08:15	35.6	35.6	35.6	90	33.0	2	6	22	0.00	29.853 
08:20	35.6	35.6	35.6	90	33.0	1	4	22	0.00	29.854 
08:25	35.8	35.8	35.8	89	32.9	1	4	315	0.00	29.854 
08:30	35.9	35.9	35.9	88	32.7	1	5	338	0.00	29.855 
08:35	35.9	35.9	35.9	88	32.7	1	3	315	0.00	29.856 
08:40	35.9	35.9	35.9	87	32.4	2	6	338	0.00	29.857 
08:45	35.9	35.9	35.9	87	32.4	1	4	45	0.00	29.861 
08:50	36.0	36.0	36.0	87	32.5	1	3	45	0.00	29.862 
08:55	36.2	36.2	36.2	87	32.7	1	3	338	0.00	29.864 
09:00	36.2	36.2	36.2	87	32.7	1	5	0	0.00	29.868 
09:05	36.2	36.2	36.2	87	32.7	1	4	22	0.00	29.869 
09:10	36.5	36.5	36.5	87	33.0	1	3	22	0.00	29.870 
09:15	36.8	36.8	36.8	88	33.6	1	3	68	0.00	29.870 
09:20	36.8	36.8	36.8	86	33.0	2	9	90	0.00	29.872 
09:25	36.9	36.9	36.9	86	33.1	2	4	22	0.00	29.875 
09:30	36.8	36.8	36.8	84	32.4	2	10	338	0.00	29.879 
09:35	36.5	36.5	36.5	84	32.1	2	6	45	0.00	29.883 
09:40	36.3	36.3	36.3	85	32.2	1	5	315	0.00	29.886 
09:45	36.6	36.6	36.6	86	32.8	1	6	315	0.00	29.885 
09:50	36.8	36.8	36.8	85	32.7	2	7	315	0.00	29.888 
09:55	37.0	37.0	37.0	85	32.9	2	6	45	0.00	29.892 
10:00	37.0	37.0	37.0	85	32.9	2	5	45	0.00	29.895 
10:05	36.9	36.9	36.9	85	32.8	2	5	90	0.00	29.899 
10:10	36.9	36.9	36.9	85	32.8	2	7	45	0.00	29.901 
10:15	37.2	37.2	37.2	86	33.4	1	3	338	0.00	29.903 
10:20	37.0	37.0	37.0	84	32.6	2	6	22	0.00	29.904 
10:25	37.0	37.0	37.0	83	32.3	2	5	0	0.00	29.906 
10:30	37.5	37.5	37.5	84	33.1	1	5	22	0.00	29.907 
10:35	37.5	37.5	37.5	83	32.8	1	6	45	0.00	29.911 
10:40	37.2	37.2	37.2	83	32.5	1	6	0	0.00	29.914 
10:45	37.0	37.0	37.0	84	32.6	1	5	45	0.00	29.916 
10:50	36.9	36.9	36.9	84	32.5	2	8	338	0.00	29.917 
10:55	37.3	37.3	37.3	85	33.2	1	5	22	0.00	29.918 
11:00	37.8	37.8	37.8	84	33.4	3	9	45	0.00	29.917 
11:05	37.9	37.9	37.9	83	33.2	3	11	45	0.00	29.920 
11:10	38.0	38.0	38.0	82	33.0	2	5	22	0.00	29.922 
11:15	37.9	37.9	37.9	83	33.2	1	5	22	0.00	29.923 
11:20	38.2	38.2	38.2	83	33.5	2	6	0	0.00	29.926 
11:25	38.3	38.3	38.3	82	33.3	2	7	22	0.00	29.925 
11:30	38.5	38.5	38.5	82	33.5	1	4	315	0.00	29.925 
11:35	38.2	38.2	38.2	83	33.5	2	5	0	0.00	29.929 
11:40	37.9	37.9	37.9	83	33.2	1	5	0	0.00	29.930 
11:45	37.9	37.9	37.9	84	33.5	2	7	22	0.00	29.931 
11:50	38.0	38.0	38.0	84	33.6	2	6	22	0.00	29.932 
11:55	37.6	37.6	37.6	84	33.2	2	10	0	0.00	29.933 
12:00	37.3	37.3	37.3	84	32.9	2	6	0	0.00	29.933 
12:05	37.6	37.6	37.6	85	33.5	1	6	68	0.00	29.933 
12:10	37.8	37.8	37.8	85	33.7	1	3	0	0.00	29.934 
12:15	37.5	37.5	37.5	86	33.7	2	6	22	0.00	29.935 
12:20	37.2	37.2	37.2	86	33.4	1	5	0	0.00	29.938 
12:25	37.8	37.8	37.8	89	34.9	0	3	0	0.00	29.937 
12:30	38.3	38.3	38.3	89	35.3	2	5	338	0.00	29.938 
12:35	38.6	38.6	38.6	88	35.4	1	6	315	0.00	29.937 
12:40	39.1	39.1	39.1	88	35.9	2	7	22	0.00	29.938 
12:45	39.2	39.2	39.2	86	35.4	2	5	45	0.00	29.938 
12:50	38.8	38.8	38.8	85	34.7	1	5	22	0.00	29.942 
12:55	38.6	38.6	38.6	85	34.5	2	5	22	0.00	29.939 
13:00	38.9	38.9	38.9	85	34.8	2	6	112	0.00	29.939 
13:05	38.6	38.6	38.6	83	33.9	2	5	22	0.00	29.945 
13:10	38.2	38.2	38.2	84	33.8	1	5	22	0.00	29.947 
13:15	38.0	38.0	38.0	86	34.2	1	5	22	0.00	29.947 
13:20	38.2	38.2	38.2	86	34.4	1	6	0	0.00	29.948 
13:25	38.3	38.3	38.3	86	34.5	1	4	0	0.00	29.949 
13:30	38.0	38.0	38.0	82	33.0	2	5	22	0.00	29.950 
13:35	38.3	38.3	38.3	82	33.3	1	5	338	0.00	29.950 
13:40	38.8	38.8	38.8	82	33.8	1	4	45	0.00	29.952 
13:45	39.2	39.2	39.2	80	33.6	1	6	0	0.00	29.954 
13:50	39.3	39.3	39.3	79	33.3	2	4	22	0.00	29.955 
13:55	38.9	38.9	38.9	79	33.0	2	7	0	0.00	29.959 
14:00	38.6	38.6	38.6	81	33.3	1	4	338	0.00	29.960 
14:05	38.9	38.9	38.9	82	33.9	2	5	22	0.00	29.961 
14:10	39.1	39.1	39.1	81	33.8	2	6	45	0.00	29.959 
14:15	39.2	39.2	39.2	80	33.6	1	4	0	0.00	29.956 
14:20	39.1	39.1	39.1	80	33.5	1	4	22	0.00	29.961 
14:25	38.8	38.8	38.8	81	33.5	2	7	0	0.00	29.963 
14:30	38.3	38.3	38.3	81	33.0	2	8	22	0.00	29.964 
14:35	38.2	38.2	38.2	82	33.2	2	4	22	0.00	29.965 
14:40	38.5	38.5	38.5	81	33.2	1	3	112	0.00	29.965 
14:45	38.9	38.9	38.9	80	33.3	2	6	338	0.00	29.965 
14:50	39.2	39.2	39.2	80	33.6	2	6	22	0.00	29.965 
14:55	38.8	38.8	38.8	78	32.5	2	7	45	0.00	29.967 
15:00	38.8	38.8	38.8	80	33.2	1	4	338	0.00	29.966 
15:05	39.1	39.1	39.1	78	32.8	3	7	45	0.00	29.967 
15:10	39.2	39.2	39.2	77	32.6	2	7	45	0.00	29.968 
15:15	39.3	39.3	39.3	78	33.0	1	5	45	0.00	29.968 
15:20	39.2	39.2	39.2	78	32.9	1	4	68	0.00	29.969 
15:25	39.2	39.2	39.2	78	32.9	1	5	22	0.00	29.969 
15:30	39.2	39.2	39.2	79	33.2	1	4	338	0.00	29.969 
15:35	39.2	39.2	39.2	77	32.6	1	4	68	0.00	29.972 
15:40	39.3	39.3	39.3	77	32.7	1	5	135	0.00	29.974 
15:45	39.3	39.3	39.3	75	32.0	2	5	0	0.00	29.977 
15:50	39.5	39.5	39.5	77	32.9	1	2	22	0.00	29.977 
15:55	39.1	39.1	39.1	76	32.2	1	4	338	0.00	29.980 
16:00	38.9	38.9	38.9	77	32.3	1	4	338	0.00	29.981 
16:05	38.9	38.9	38.9	77	32.3	1	4	338	0.00	29.982 
16:10	38.9	38.9	38.9	78	32.6	1	3	0	0.00	29.985 
16:15	38.5	38.5	38.5	80	32.9	1	4	22	0.00	29.988 
16:20	38.0	38.0	38.0	81	32.7	1	6	22	0.00	29.991 
16:25	37.9	37.9	37.9	83	33.2	0	1	68	0.00	29.992 
16:30	37.8	37.8	37.8	84	33.4	0	2	68	0.00	29.995 
16:35	37.8	37.8	37.8	85	33.7	1	4	68	0.00	29.997 
16:40	37.8	37.8	37.8	85	33.7	0	4	45	0.00	29.998 
16:45	37.8	37.8	37.8	83	33.1	1	4	315	0.00	29.998 
16:50	37.9	37.9	37.9	78	31.7	1	5	45	0.00	30.000 
16:55	38.3	38.3	38.3	77	31.7	1	3	0	0.00	30.001 
17:00	38.6	38.6	38.6	76	31.7	0	4	338	0.00	30.000 
17:05	38.8	38.8	38.8	73	30.9	1	3	90	0.00	30.002 
17:10	38.9	38.9	38.9	72	30.7	1	4	0	0.00	30.003 
17:15	38.9	38.9	38.9	71	30.3	1	3	68	0.00	30.005 
17:20	39.1	39.1	39.1	72	30.8	0	2	0	0.00	30.007 
17:25	39.2	39.2	39.2	71	30.6	0	2	0	0.00	30.006 
17:30	39.2	39.2	39.2	70	30.3	0	1	338	0.00	30.008 
17:35	39.3	39.3	39.3	70	30.3	0	4	338	0.00	30.010 
17:40	39.5	39.5	39.5	70	30.5	0	2	22	0.00	30.012 
17:45	39.5	39.5	39.5	69	30.2	0	2	22	0.00	30.013 
17:50	39.5	39.5	39.5	69	30.2	0	4	315	0.00	30.014 
17:55	39.3	39.3	39.3	69	30.0	1	4	0	0.00	30.015 
18:00	39.3	39.3	39.3	68	29.6	1	5	22	0.00	30.018 
18:05	39.2	39.2	39.2	68	29.5	1	5	0	0.00	30.021 
18:10	39.2	39.2	39.2	68	29.5	1	4	338	0.00	30.024 
18:15	39.2	39.2	39.2	69	29.9	0	3	270	0.00	30.026 
18:20	39.2	39.2	39.2	69	29.9	0	2	0	0.00	30.027 
18:25	39.1	39.1	39.1	68	29.4	1	2	0	0.00	30.028 
18:30	39.1	39.1	39.1	68	29.4	0	2	22	0.00	30.028 
18:35	39.1	39.1	39.1	69	29.8	0	2	338	0.00	30.029 
18:40	39.1	39.1	39.1	69	29.8	0	2	22	0.00	30.029 
18:45	39.1	39.1	39.1	69	29.8	1	3	338	0.00	30.030 
18:50	39.1	39.1	39.1	69	29.8	0	3	22	0.00	30.031 
18:55	38.9	38.9	38.9	67	28.9	1	4	0	0.00	30.033 
19:00	38.9	38.9	38.9	66	28.5	1	3	22	0.00	30.037 
19:05	38.9	38.9	38.9	66	28.5	0	3	338	0.00	30.040 
19:10	38.8	38.8	38.8	66	28.4	0	3	22	0.00	30.041 
19:15	38.8	38.8	38.8	67	28.8	0	2	0	0.00	30.042 
19:20	38.8	38.8	38.8	65	28.1	1	4	22	0.00	30.044 
19:25	38.8	38.8	38.8	66	28.4	0	1	22	0.00	30.045 
19:30	38.8	38.8	38.8	66	28.4	0	1	22	0.00	30.047 
19:35	38.6	38.6	38.6	66	28.2	0	2	315	0.00	30.048 
19:40	38.6	38.6	38.6	66	28.2	0	1	315	0.00	30.049 
19:45	38.6	38.6	38.6	66	28.2	0	1	315	0.00	30.051 
19:50	38.6	38.6	38.6	66	28.2	0	1	315	0.00	30.055 
19:55	38.6	38.6	38.6	66	28.2	0	2	270	0.00	30.058 
20:00	38.6	38.6	38.6	66	28.2	0	1	270	0.00	30.060 
20:05	38.5	38.5	38.5	66	28.1	0	2	270	0.00	30.061 
20:10	38.5	38.5	38.5	67	28.5	0	1	270	0.00	30.063 
20:15	38.2	38.2	38.2	67	28.2	0	1	270	0.00	30.065 
20:20	38.0	38.0	38.0	67	28.0	0	2	270	0.00	30.069 
20:25	37.8	37.8	37.8	68	28.2	0	0	---	0.00	30.072 
20:30	37.6	37.6	37.6	69	28.4	0	0	---	0.00	30.074 
20:35	37.5	37.5	37.5	69	28.3	0	0	---	0.00	30.076 
20:40	37.3	37.3	37.3	69	28.1	0	1	270	0.00	30.078 
20:45	37.2	37.2	37.2	70	28.3	0	0	---	0.00	30.078 
20:50	37.0	37.0	37.0	70	28.1	0	0	---	0.00	30.079 
20:55	36.9	36.9	36.9	70	28.0	0	0	---	0.00	30.079 
21:00	36.8	36.8	36.8	70	27.9	0	0	---	0.00	30.080 
21:05	36.6	36.6	36.6	71	28.1	0	0	---	0.00	30.081 
21:10	36.5	36.5	36.5	71	28.0	0	1	270	0.00	30.080 
21:15	36.3	36.3	36.3	72	28.2	0	1	270	0.00	30.083 
21:20	36.2	36.2	36.2	72	28.1	0	1	270	0.00	30.082 
21:25	36.0	36.0	36.0	73	28.2	0	0	---	0.00	30.084 
21:30	35.9	35.9	35.9	72	27.8	0	1	270	0.00	30.086 
21:35	35.9	35.9	35.9	72	27.8	0	1	270	0.00	30.087 
21:40	35.8	35.8	35.8	72	27.7	0	2	270	0.00	30.086 
21:45	35.8	35.8	35.8	72	27.7	0	2	270	0.00	30.088 
21:50	35.8	35.8	35.8	72	27.7	0	1	270	0.00	30.090 
21:55	35.6	35.6	35.6	72	27.5	0	1	270	0.00	30.091 
22:00	35.5	35.5	35.5	72	27.4	0	0	---	0.00	30.091 
22:05	35.2	35.2	35.2	72	27.1	0	0	---	0.00	30.093 
22:10	34.9	34.9	34.9	73	27.1	0	0	---	0.00	30.093 
22:15	34.4	34.4	34.4	73	26.7	0	0	---	0.00	30.093 
22:20	34.1	34.1	34.1	74	26.7	0	0	---	0.00	30.093 
22:25	33.7	33.7	33.7	76	27.0	0	0	---	0.00	30.093 
22:30	33.4	33.4	33.4	77	27.0	0	0	---	0.00	30.092 
22:35	33.2	33.2	33.2	77	26.8	0	0	---	0.00	30.094 
22:40	33.1	33.1	33.1	78	27.0	0	0	---	0.00	30.094 
22:45	32.8	32.8	32.8	78	26.7	0	0	---	0.00	30.094 
22:50	32.7	32.7	32.7	79	26.9	0	0	---	0.00	30.094 
22:55	32.4	32.4	32.4	79	26.6	0	0	---	0.00	30.095 
23:00	32.2	32.2	32.2	79	26.4	0	0	---	0.00	30.095 
23:05	32.1	32.1	32.1	80	26.6	0	0	---	0.00	30.096 
23:10	31.8	31.8	31.8	80	26.3	0	0	---	0.00	30.096 
23:15	31.6	31.6	31.6	81	26.5	0	0	---	0.00	30.095 
23:20	31.3	31.3	31.3	81	26.2	0	0	---	0.00	30.096 
23:25	31.2	31.2	31.2	82	26.4	0	0	---	0.00	30.095 
23:30	31.0	31.0	31.0	82	26.2	0	0	---	0.00	30.096 
23:35	31.0	31.0	31.0	83	26.5	0	0	---	0.00	30.096 
23:40	30.9	30.9	30.9	83	26.4	0	0	---	0.00	30.095 
23:45	30.9	30.9	30.9	83	26.4	0	0	---	0.00	30.094 
23:50	30.9	30.9	30.9	84	26.6	0	0	---	0.00	30.093 
23:55	30.9	30.9	30.9	84	26.6	0	0	---	0.00	30.094 

CoCoRaHS
IN-AL-39
A2 Web Hosting
Creative Commons License
GoDaddy
Look for:

loaded 2017-10-19 12:15:16 • last modified 2010-11-18 10:43:29
Privacy PolicyDisclaimer
• wx.awcolley.com is powered by PmWiki v.2002016 •
• all content (unless otherwise noted) © 2017 A W Colley